Time;durP1;ratioP1;P1;durP2;ratioP2;P2;SDS_P1;SDS_P2;PMS_P1;PMS_P2;Temp;Humidity;BMP_temperature;BMP_pressure;BME280_temperature;BME280_humidity;BME280_pressure;Samples;Min_cycle;Max_cycle;Signal;HPM_P1;HPM_P2
2020/12/13 00:00:32;;;;;;;28.70;13.13;;;;;;;12.15;67.48;131431.17;1789852;77;21372;-60
2020/12/13 00:03:05;;;;;;;30.75;14.03;;;;;;;12.30;66.44;150685.22;1795571;77;21354;-60
2020/12/13 00:05:38;;;;;;;31.48;14.20;;;;;;;12.54;66.11;154050.03;1826526;77;21217;-60
2020/12/13 00:08:10;;;;;;;33.73;14.15;;;;;;;12.55;65.17;154411.53;1799983;78;21696;-60
2020/12/13 00:10:43;;;;;;;30.17;14.18;;;;;;;12.44;65.33;154383.94;1785769;77;21188;-60
2020/12/13 00:13:15;;;;;;;33.08;13.32;;;;;;;12.29;66.07;151945.47;1816277;78;21312;-59
2020/12/13 00:15:47;;;;;;;30.20;12.47;;;;;;;12.29;66.40;149032.91;1775999;79;21374;-60
2020/12/13 00:18:20;;;;;;;31.27;12.73;;;;;;;12.20;66.54;145566.39;1747920;80;21230;-61
2020/12/13 00:20:53;;;;;;;25.70;11.28;;;;;;;12.24;66.42;149464.53;1778295;79;21760;-60
2020/12/13 00:23:25;;;;;;;29.95;12.85;;;;;;;12.46;65.58;154387.84;1736261;80;21312;-60
2020/12/13 00:25:59;;;;;;;25.70;11.35;;;;;;;12.28;65.51;154340.61;1771753;79;21202;-58
2020/12/13 00:28:32;;;;;;;26.73;10.82;;;;;;;12.19;65.45;154318.28;1751010;79;21242;-59
2020/12/13 00:31:05;;;;;;;31.90;13.00;;;;;;;12.22;65.67;154324.78;1749321;80;21378;-58
2020/12/13 00:33:37;;;;;;;31.80;12.73;;;;;;;12.21;65.55;154322.25;1736286;80;21689;-58
2020/12/13 00:36:10;;;;;;;31.90;12.65;;;;;;;12.25;66.26;151551.80;1714066;81;21812;-59
2020/12/13 00:38:43;;;;;;;25.72;10.93;;;;;;;12.26;66.71;146710.53;1745120;80;21384;-59
2020/12/13 00:41:15;;;;;;;23.60;11.75;;;;;;;12.35;68.28;126724.81;1754421;79;21209;-59
2020/12/13 00:43:47;;;;;;;23.77;11.73;;;;;;;12.33;66.75;149138.97;1739020;80;21582;-57
2020/12/13 00:46:19;;;;;;;31.55;12.85;;;;;;;12.32;66.64;152031.06;1751808;81;21820;-59
2020/12/13 00:48:52;;;;;;;27.13;11.40;;;;;;;12.27;70.67;120183.56;1771144;80;22579;-58
2020/12/13 00:51:26;;;;;;;26.48;13.00;;;;;;;12.25;67.36;148860.38;1818567;77;21332;-59
2020/12/13 00:53:59;;;;;;;25.15;11.68;;;;;;;12.25;68.61;133781.97;1813580;77;21331;-59
2020/12/13 00:56:32;;;;;;;23.20;10.48;;;;;;;12.26;68.10;143073.31;1776797;79;21173;-59
2020/12/13 00:59:04;;;;;;;26.77;12.18;;;;;;;12.21;68.66;136888.19;1764606;80;21150;-58
2020/12/13 01:01:37;;;;;;;23.55;10.85;;;;;;;12.21;68.20;147048.92;1767891;79;21234;-59
2020/12/13 01:04:10;;;;;;;25.68;11.30;;;;;;;12.23;69.39;134386.84;1765210;80;21438;-59
2020/12/13 01:06:42;;;;;;;24.50;10.45;;;;;;;12.25;69.02;144401.63;1723990;81;21277;-59
2020/12/13 01:09:14;;;;;;;25.77;11.88;;;;;;;12.14;70.99;126105.54;1781531;79;21193;-59
2020/12/13 01:11:47;;;;;;;17.77;9.50;;;;;;;12.10;70.91;132411.72;1812832;77;21434;-59
2020/12/13 01:14:19;;;;;;;20.10;10.85;;;;;;;12.14;70.81;135269.03;1820747;77;21338;-59
2020/12/13 01:16:54;;;;;;;21.33;10.75;;;;;;;12.19;69.50;151057.02;1772290;79;21166;-58
2020/12/13 01:19:26;;;;;;;20.82;10.05;;;;;;;12.25;69.49;152350.69;1769954;79;21355;-60
2020/12/13 01:22:01;;;;;;;20.80;10.08;;;;;;;12.23;70.59;143366.75;1745169;81;21206;-59
2020/12/13 01:24:34;;;;;;;22.00;10.43;;;;;;;12.32;69.09;154351.13;1754722;80;21384;-59
2020/12/13 01:27:06;;;;;;;18.02;9.50;;;;;;;12.31;69.55;153640.72;1739171;81;21601;-58
2020/12/13 01:29:38;;;;;;;16.95;8.40;;;;;;;12.38;68.64;154366.86;1737058;81;21325;-59
2020/12/13 01:32:11;;;;;;;24.27;10.95;;;;;;;12.41;68.71;154376.05;1746181;80;21269;-59
2020/12/13 01:34:43;;;;;;;18.92;9.40;;;;;;;12.44;68.28;154383.94;1721028;81;21757;-59
2020/12/13 01:37:15;;;;;;;20.25;9.73;;;;;;;12.43;68.00;154381.31;1738759;80;21346;-59
2020/12/13 01:39:47;;;;;;;20.82;9.10;;;;;;;12.41;67.90;154374.75;1749689;80;21237;-59
2020/12/13 01:42:20;;;;;;;19.57;9.45;;;;;;;12.46;68.12;154387.84;1747480;80;21268;-59
2020/12/13 01:44:52;;;;;;;16.55;8.80;;;;;;;12.56;68.10;154415.44;1756776;80;21248;-58
2020/12/13 01:47:28;;;;;;;18.52;9.88;;;;;;;12.66;67.81;154441.70;1746700;80;21343;-59
2020/12/13 01:49:58;;;;;;;17.50;9.33;;;;;;;12.65;67.45;154439.08;1742658;79;21226;-59
2020/12/13 01:52:47;;;;;;;18.30;8.93;;;;;;;12.63;67.44;154433.81;1782665;79;21328;-59
2020/12/13 01:55:17;;;;;;;18.48;8.28;;;;;;;12.68;67.26;154446.97;1781227;78;21325;-59
2020/12/13 01:57:54;;;;;;;18.70;8.88;;;;;;;12.69;67.14;154450.89;1756280;80;21697;-59
2020/12/13 02:00:27;;;;;;;18.65;9.18;;;;;;;12.72;67.07;154458.78;1768851;79;21363;-59
2020/12/13 02:03:02;;;;;;;20.40;9.73;;;;;;;12.73;67.39;154460.13;1760268;79;21313;-59
2020/12/13 02:05:35;;;;;;;21.80;9.68;;;;;;;12.73;67.48;154461.41;1734492;81;21318;-59
2020/12/13 02:08:07;;;;;;;19.42;9.28;;;;;;;12.74;67.51;154464.05;1744519;80;21411;-58
2020/12/13 02:10:40;;;;;;;20.17;10.38;;;;;;;12.80;67.35;154478.50;1771652;79;21234;-59
2020/12/13 02:13:12;;;;;;;21.37;10.48;;;;;;;12.74;67.14;154462.70;1761075;79;21229;-59
2020/12/13 02:15:47;;;;;;;23.05;11.10;;;;;;;12.69;67.06;154449.59;1751635;81;21336;-59
2020/12/13 02:18:19;;;;;;;19.85;10.35;;;;;;;12.71;67.17;154454.86;1749798;81;21375;-59
2020/12/13 02:20:52;;;;;;;20.52;10.80;;;;;;;12.68;66.65;154446.97;1730717;80;21809;-59
2020/12/13 02:23:24;;;;;;;20.17;9.35;;;;;;;12.80;66.35;154478.50;1729336;81;21387;-59
2020/12/13 02:25:57;;;;;;;20.20;10.25;;;;;;;12.64;67.34;154436.44;1772584;80;21221;-59
2020/12/13 02:28:29;;;;;;;22.05;11.80;;;;;;;12.80;66.51;154478.50;1737763;80;21229;-59
2020/12/13 02:31:03;;;;;;;21.02;10.60;;;;;;;12.79;67.21;154475.86;1762393;79;21264;-59
2020/12/13 02:33:36;;;;;;;17.50;9.20;;;;;;;12.84;67.43;154490.31;1765781;79;21247;-59
2020/12/13 02:36:08;;;;;;;19.45;9.80;;;;;;;12.72;68.30;154458.78;1819906;78;21376;-59
2020/12/13 02:38:41;;;;;;;20.52;10.82;;;;;;;12.77;68.15;154470.59;1823247;77;21244;-59
2020/12/13 02:41:13;;;;;;;22.62;11.35;;;;;;;12.58;68.74;154420.70;1819921;77;21327;-59
2020/12/13 02:43:46;;;;;;;22.82;10.70;;;;;;;12.57;69.28;153291.53;1758104;80;21202;-59
2020/12/13 02:46:18;;;;;;;23.42;10.50;;;;;;;12.59;68.61;154423.34;1746775;80;21209;-58
2020/12/13 02:48:51;;;;;;;20.60;9.60;;;;;;;12.67;68.81;154445.63;1771675;79;21264;-59
2020/12/13 02:51:23;;;;;;;19.92;9.48;;;;;;;12.77;68.60;154470.59;1807955;77;21178;-59
2020/12/13 02:53:56;;;;;;;19.25;9.93;;;;;;;12.77;68.85;154470.59;1769568;79;21186;-58
2020/12/13 02:56:29;;;;;;;21.73;10.30;;;;;;;12.88;68.29;154500.83;1797243;77;21320;-59
2020/12/13 02:59:02;;;;;;;24.98;11.25;;;;;;;12.86;68.13;154494.22;1821633;77;21318;-58
2020/12/13 03:01:34;;;;;;;22.52;10.82;;;;;;;12.86;68.29;154495.56;1786043;77;21174;-58
2020/12/13 03:04:06;;;;;;;18.35;9.35;;;;;;;12.97;67.76;154523.17;1791482;79;21325;-58
2020/12/13 03:06:40;;;;;;;21.50;9.28;;;;;;;13.03;67.78;154540.25;1805902;77;21356;-58
2020/12/13 03:09:12;;;;;;;19.00;9.28;;;;;;;13.12;68.47;154562.59;1812736;78;21217;-58
2020/12/13 03:11:46;;;;;;;20.90;10.25;;;;;;;13.21;67.87;154586.23;1789156;79;21341;-59
2020/12/13 03:14:18;;;;;;;19.48;9.65;;;;;;;13.23;67.60;154592.84;1769692;80;21252;-59
2020/12/13 03:16:50;;;;;;;19.00;9.75;;;;;;;13.24;67.46;154595.47;1791724;79;21250;-59
2020/12/13 03:19:23;;;;;;;21.15;10.68;;;;;;;13.20;67.17;154584.94;1795145;79;21328;-59
2020/12/13 03:21:56;;;;;;;21.12;10.15;;;;;;;13.04;67.98;154542.89;1801723;78;21333;-59
2020/12/13 03:24:28;;;;;;;20.32;9.55;;;;;;;13.03;67.57;154540.25;1765878;79;21317;-59
2020/12/13 03:27:01;;;;;;;22.10;10.30;;;;;;;13.07;67.71;154550.78;1819959;77;21199;-58
2020/12/13 03:29:33;;;;;;;20.02;11.15;;;;;;;13.13;67.46;154565.23;1824288;77;21410;-58
2020/12/13 03:32:05;;;;;;;17.65;10.35;;;;;;;13.16;67.51;154574.42;1785008;79;21203;-59
2020/12/13 03:34:38;;;;;;;22.02;10.65;;;;;;;13.19;67.36;154581.03;1734061;81;21196;-59
2020/12/13 03:37:10;;;;;;;23.55;10.50;;;;;;;13.18;66.90;154579.69;1778893;79;21835;-58
2020/12/13 03:39:42;;;;;;;18.20;9.95;;;;;;;13.16;67.88;154573.13;1745331;81;21372;-58
2020/12/13 03:42:14;;;;;;;17.30;9.15;;;;;;;13.15;67.31;154570.50;1819675;77;21349;-58
2020/12/13 03:44:47;;;;;;;19.15;9.35;;;;;;;13.07;66.46;154549.50;1810827;78;21185;-58
2020/12/13 03:47:19;;;;;;;19.90;9.45;;;;;;;13.17;66.49;154575.75;1834999;77;21329;-58
2020/12/13 03:49:52;;;;;;;16.82;9.00;;;;;;;13.24;66.83;154595.47;1774084;79;21819;-58
2020/12/13 03:52:24;;;;;;;16.80;8.93;;;;;;;13.33;66.82;154617.78;1750256;79;21256;-58
2020/12/13 03:54:57;;;;;;;15.43;8.58;;;;;;;13.41;66.89;154638.84;1779209;79;21324;-58
2020/12/13 03:57:30;;;;;;;14.33;8.08;;;;;;;13.56;66.58;154680.86;1790979;79;21358;-58
2020/12/13 04:00:04;;;;;;;18.15;8.48;;;;;;;13.57;66.96;154682.20;1768827;80;21352;-58
2020/12/13 04:02:36;;;;;;;17.77;9.00;;;;;;;13.57;66.41;154683.50;1798595;79;21379;-59
2020/12/13 04:05:09;;;;;;;17.52;8.43;;;;;;;13.79;65.82;154740.03;1809492;77;21336;-59
2020/12/13 04:07:41;;;;;;;19.10;8.68;;;;;;;13.80;66.03;154743.95;1821184;78;21347;-58
2020/12/13 04:10:13;;;;;;;18.00;9.60;;;;;;;13.82;65.13;154747.94;1810610;78;21154;-59
2020/12/13 04:12:47;;;;;;;19.45;9.55;;;;;;;13.77;64.95;154736.06;1792732;78;21179;-58
2020/12/13 04:15:20;;;;;;;16.90;9.43;;;;;;;13.81;64.85;154746.59;1746218;79;21368;-58
2020/12/13 04:17:53;;;;;;;15.88;9.30;;;;;;;13.73;65.28;154725.58;1731234;82;21886;-58
2020/12/13 04:20:26;;;;;;;18.00;9.20;;;;;;;13.66;65.40;154707.14;1787324;78;21817;-58
2020/12/13 04:22:59;;;;;;;19.17;10.85;;;;;;;13.75;65.44;154729.50;1803324;79;21235;-58
2020/12/13 04:25:31;;;;;;;24.25;12.00;;;;;;;13.93;65.10;154778.16;1816552;78;21374;-58
2020/12/13 04:28:04;;;;;;;22.65;10.78;;;;;;;14.13;64.77;154830.78;1778870;79;21394;-58
2020/12/13 04:30:37;;;;;;;21.05;9.10;;;;;;;14.16;64.65;154837.39;1820474;77;21342;-59
2020/12/13 04:33:10;;;;;;;22.50;9.88;;;;;;;14.14;64.54;154833.41;1814323;77;21659;-58
2020/12/13 04:35:42;;;;;;;20.25;9.55;;;;;;;14.14;65.08;154832.13;1796188;78;21211;-59
2020/12/13 04:38:15;;;;;;;24.25;11.22;;;;;;;14.17;64.85;154841.31;1806087;78;21346;-59
2020/12/13 04:40:47;;;;;;;22.65;11.05;;;;;;;14.18;64.97;154842.61;1808732;77;21330;-58
2020/12/13 04:43:20;;;;;;;24.95;10.95;;;;;;;14.20;64.61;154847.87;1796283;78;21343;-59
2020/12/13 04:45:52;;;;;;;22.93;12.03;;;;;;;14.21;65.06;154850.52;1822313;78;21163;-59
2020/12/13 04:48:25;;;;;;;28.87;14.55;;;;;;;14.21;65.12;154851.86;1732962;82;21186;-58
2020/12/13 04:50:57;;;;;;;23.05;11.43;;;;;;;14.22;64.88;154853.16;1753733;81;21345;-58
2020/12/13 04:53:31;;;;;;;28.25;12.68;;;;;;;14.19;64.92;154845.25;1731276;81;21220;-59
2020/12/13 04:56:03;;;;;;;31.95;12.47;;;;;;;14.18;64.96;154842.61;1793675;77;21336;-58
2020/12/13 04:58:35;;;;;;;30.82;13.10;;;;;;;14.20;66.10;154849.22;1808335;77;21229;-58
2020/12/13 05:01:07;;;;;;;31.37;13.75;;;;;;;14.24;65.24;154859.70;1811068;78;21416;-59
2020/12/13 05:03:40;;;;;;;33.85;13.98;;;;;;;14.19;66.47;154846.58;1802073;79;21202;-58
2020/12/13 05:06:12;;;;;;;37.33;16.02;;;;;;;14.27;66.59;154867.61;1822114;78;21241;-58
2020/12/13 05:08:47;;;;;;;37.48;15.75;;;;;;;14.28;66.17;154870.25;1762167;80;21340;-58
2020/12/13 05:11:18;;;;;;;37.67;15.28;;;;;;;14.26;67.18;154864.97;1799340;78;21453;-59
2020/12/13 05:13:52;;;;;;;35.50;15.88;;;;;;;14.10;66.64;154821.53;1801869;79;21369;-62
2020/12/13 05:16:24;;;;;;;44.05;16.77;;;;;;;14.07;66.25;154814.97;1814188;78;21343;-59
2020/12/13 05:18:57;;;;;;;39.70;16.25;;;;;;;14.23;66.24;154855.78;1768976;80;21190;-59
2020/12/13 05:21:29;;;;;;;38.28;15.43;;;;;;;14.12;65.86;154826.84;1775328;79;21333;-62
2020/12/13 05:24:04;;;;;;;38.73;16.35;;;;;;;14.24;65.53;154859.70;1720973;82;21847;-63
2020/12/13 05:26:37;;;;;;;37.70;16.12;;;;;;;14.15;65.66;154836.05;1737718;81;21692;-62
2020/12/13 05:29:09;;;;;;;35.95;14.43;;;;;;;14.23;64.92;154855.78;1756255;80;21391;-62
2020/12/13 05:31:42;;;;;;;33.80;15.00;;;;;;;14.26;65.09;154863.69;1751403;80;21241;-63
2020/12/13 05:34:18;;;;;;;29.40;13.93;;;;;;;14.30;65.03;154874.17;1742786;81;21571;-62
2020/12/13 05:36:50;;;;;;;31.55;14.23;;;;;;;14.33;64.43;154883.42;1737213;82;21279;-62
2020/12/13 05:39:23;;;;;;;27.87;13.00;;;;;;;14.26;64.41;154864.97;1740684;81;21328;-62
2020/12/13 05:41:55;;;;;;;27.58;13.53;;;;;;;14.23;64.22;154857.13;1715585;82;21419;-63
2020/12/13 05:47:12;;;;;;;36.48;15.63;;;;;;;14.20;64.57;154849.22;1767125;79;21835;-62
2020/12/13 05:50:34;;;;;;;31.10;13.93;;;;;;;14.26;64.48;154863.69;1758481;80;21387;-62
2020/12/13 05:52:18;;;;;;;;;;;;;;;14.18;63.66;154843.95;1724735;80;21175;-62
2020/12/13 05:54:50;;;;;;;34.73;13.80;;;;;;;14.28;64.15;154870.25;1714597;82;20248;-62
2020/12/13 05:57:23;;;;;;;31.90;14.13;;;;;;;14.23;63.96;154855.78;1779462;79;21339;-62
2020/12/13 05:59:55;;;;;;;31.25;13.88;;;;;;;14.24;63.88;154859.70;1794021;79;21320;-62
2020/12/13 06:02:27;;;;;;;36.58;14.47;;;;;;;14.30;64.24;154875.52;1770608;79;21205;-62
2020/12/13 06:05:04;;;;;;;33.70;15.00;;;;;;;14.35;64.34;154888.64;1773100;79;21339;-62
2020/12/13 06:07:37;;;;;;;30.30;14.28;;;;;;;14.34;64.09;154886.06;1798867;79;21405;-62
2020/12/13 06:10:09;;;;;;;36.65;15.18;;;;;;;14.19;64.26;154845.25;1789074;79;21224;-62
2020/12/13 06:12:41;;;;;;;36.77;15.75;;;;;;;14.30;64.18;154875.52;1807122;77;21344;-62
2020/12/13 06:15:15;;;;;;;41.23;14.93;;;;;;;14.34;64.10;154884.72;1741104;80;21363;-62
2020/12/13 06:17:48;;;;;;;40.98;16.25;;;;;;;14.34;64.37;154886.06;1789069;79;21419;-62
2020/12/13 06:20:20;;;;;;;42.00;16.37;;;;;;;14.40;64.35;154900.53;1796791;79;21380;-69
2020/12/13 06:22:56;;;;;;;41.68;16.07;;;;;;;14.29;64.17;154871.59;1804249;77;21676;-62
2020/12/13 06:25:29;;;;;;;42.75;17.07;;;;;;;14.16;63.94;154838.69;1789691;79;21339;-62
2020/12/13 06:28:03;;;;;;;42.62;17.00;;;;;;;14.12;64.03;154826.84;1789823;79;21885;-61
2020/12/13 06:30:37;;;;;;;38.33;15.95;;;;;;;14.09;64.22;154818.91;1735062;81;21339;-62
2020/12/13 06:33:09;;;;;;;46.83;18.05;;;;;;;14.04;64.12;154805.78;1780545;78;21329;-62
2020/12/13 06:35:43;;;;;;;55.40;19.82;;;;;;;14.16;64.48;154838.69;1788318;78;21265;-62
2020/12/13 06:38:18;;;;;;;45.45;18.98;;;;;;;14.17;64.23;154840.03;1792443;79;21169;-62
2020/12/13 06:40:51;;;;;;;49.23;18.15;;;;;;;14.12;64.12;154828.14;1802802;79;21811;-62
2020/12/13 06:43:23;;;;;;;55.92;20.52;;;;;;;14.24;64.04;154859.70;1752758;79;21341;-61
2020/12/13 06:46:18;;;;;;;53.85;18.27;;;;;;;14.31;64.04;154878.16;1796471;78;21785;-62
2020/12/13 06:48:51;;;;;;;52.08;20.62;;;;;;;14.29;63.49;154871.59;1812956;77;21234;-62
2020/12/13 06:51:32;;;;;;;56.88;19.62;;;;;;;14.33;64.15;154882.08;1763562;80;21207;-61
2020/12/13 06:54:10;;;;;;;51.45;19.95;;;;;;;14.39;63.79;154897.89;1801815;79;21165;-62
2020/12/13 06:56:42;;;;;;;50.48;19.92;;;;;;;14.38;63.61;154896.55;1793579;79;21827;-62
2020/12/13 06:59:15;;;;;;;47.25;19.32;;;;;;;14.41;63.71;154904.45;1807372;77;21366;-61
2020/12/13 07:01:47;;;;;;;57.23;19.92;;;;;;;14.42;63.43;154905.73;1779764;79;21324;-61
2020/12/13 07:04:35;;;;;;;56.55;21.10;;;;;;;14.36;63.11;154891.28;1801475;79;21212;-61
2020/12/13 07:09:38;;;;;;;48.87;19.95;;;;;;;14.28;63.62;154870.25;1797129;78;21230;-61
2020/12/13 07:12:11;;;;;;;52.30;20.62;;;;;;;14.34;63.87;154884.72;1777080;79;21213;-61
2020/12/13 07:14:43;;;;;;;48.02;20.70;;;;;;;14.37;64.02;154893.91;1795066;77;21193;-61
2020/12/13 07:17:18;;;;;;;49.27;19.40;;;;;;;14.40;63.98;154901.81;1772036;79;21186;-62
2020/12/13 07:19:55;;;;;;;50.30;20.62;;;;;;;14.43;63.69;154909.72;1796739;79;21315;-62
2020/12/13 07:22:34;;;;;;;43.48;19.65;;;;;;;14.36;63.38;154891.28;1758465;79;21178;-61
2020/12/13 07:25:07;;;;;;;49.50;19.63;;;;;;;14.41;63.52;154904.45;1802575;79;21412;-62
2020/12/13 07:27:39;;;;;;;51.92;19.25;;;;;;;14.37;63.63;154892.62;1808596;77;21352;-62
2020/12/13 07:30:12;;;;;;;39.83;16.93;;;;;;;14.49;63.62;154926.81;1800438;77;21845;-62
2020/12/13 07:32:45;;;;;;;47.03;19.42;;;;;;;14.57;63.17;154946.56;1794312;78;21205;-61
2020/12/13 07:35:17;;;;;;;49.08;17.55;;;;;;;14.57;62.70;154947.86;1803535;79;21407;-61
2020/12/13 07:37:50;;;;;;;43.75;18.67;;;;;;;14.64;62.93;154964.97;1808985;78;21222;-62
2020/12/13 07:40:22;;;;;;;44.63;18.23;;;;;;;14.65;62.48;154968.89;1764541;79;21317;-62
2020/12/13 07:42:58;;;;;;;38.35;18.25;;;;;;;14.58;62.68;154949.20;1797871;79;21330;-61
2020/12/13 07:45:30;;;;;;;52.60;18.42;;;;;;;14.71;62.67;154983.36;1789991;79;21669;-61
2020/12/13 07:48:03;;;;;;;46.92;19.67;;;;;;;14.62;62.98;154959.69;1786006;78;21328;-61
2020/12/13 07:50:46;;;;;;;42.55;17.35;;;;;;;14.69;62.85;154978.14;1783268;77;21371;-62
2020/12/13 07:53:27;;;;;;;43.17;18.25;;;;;;;14.68;62.69;154975.50;1800163;79;21371;-61
2020/12/13 07:55:59;;;;;;;40.95;17.40;;;;;;;14.72;62.90;154987.34;1788579;79;21850;-62
2020/12/13 07:58:32;;;;;;;42.95;16.70;;;;;;;14.77;62.73;155000.47;1791427;78;21418;-61
2020/12/13 08:01:11;;;;;;;40.63;17.42;;;;;;;14.79;62.87;155004.44;1815376;77;21342;-62
2020/12/13 08:03:47;;;;;;;42.93;17.75;;;;;;;14.80;62.79;155007.08;1799668;79;21359;-61
2020/12/13 08:06:19;;;;;;;40.78;16.70;;;;;;;14.89;62.77;155032.05;1785620;79;21390;-61
2020/12/13 08:08:53;;;;;;;40.43;18.12;;;;;;;14.90;62.47;155033.39;1787630;79;21240;-62
2020/12/13 08:11:26;;;;;;;37.75;16.57;;;;;;;14.80;62.42;155008.38;1794313;78;21376;-62
2020/12/13 08:13:58;;;;;;;43.15;16.52;;;;;;;14.83;62.68;155016.28;1791922;77;21674;-62
2020/12/13 08:16:30;;;;;;;37.30;16.80;;;;;;;14.83;62.18;155016.28;1810465;79;21165;-62
2020/12/13 08:19:13;;;;;;;31.90;15.10;;;;;;;14.79;62.57;155004.44;1813287;77;21240;-63
2020/12/13 08:22:01;;;;;;;38.38;16.62;;;;;;;14.76;62.15;154996.53;1810414;77;21343;-69
2020/12/13 08:24:34;;;;;;;40.75;17.50;;;;;;;14.72;62.46;154987.34;1767881;79;21178;-63
2020/12/13 08:27:06;;;;;;;40.03;17.00;;;;;;;14.55;62.18;154941.30;1730595;82;21763;-68
2020/12/13 08:29:39;;;;;;;38.00;15.88;;;;;;;14.53;62.34;154936.02;1743209;81;21361;-63
2020/12/13 08:32:14;;;;;;;31.65;14.28;;;;;;;14.52;62.38;154933.39;1752913;79;21222;-64
2020/12/13 08:34:46;;;;;;;32.90;15.90;;;;;;;14.52;62.62;154933.39;1775729;79;21221;-61
2020/12/13 08:37:25;;;;;;;31.65;14.00;;;;;;;14.52;62.51;154933.39;1762465;79;21390;-66
2020/12/13 08:39:58;;;;;;;33.85;15.30;;;;;;;14.67;62.81;154974.16;1736953;79;21339;-66
2020/12/13 08:42:30;;;;;;;34.33;14.58;;;;;;;14.73;62.54;154989.97;1762461;79;21189;-62
2020/12/13 08:45:03;;;;;;;29.70;14.13;;;;;;;14.73;62.25;154988.63;1759778;79;21420;-67
2020/12/13 08:47:36;;;;;;;38.08;16.00;;;;;;;14.67;61.89;154972.88;1747255;80;21332;-66
2020/12/13 08:50:10;;;;;;;36.13;15.60;;;;;;;14.73;62.61;154988.63;1737625;81;21866;-71
2020/12/13 08:52:42;;;;;;;29.40;14.95;;;;;;;14.77;63.13;154999.17;1688224;82;21210;-70
2020/12/13 08:55:15;;;;;;;33.33;16.20;;;;;;;14.79;63.58;155004.44;1712152;81;21304;-69
2020/12/13 08:57:50;;;;;;;32.45;16.00;;;;;;;14.79;63.48;155005.73;1669295;83;21315;-64
2020/12/13 09:00:23;;;;;;;36.77;16.48;;;;;;;14.77;63.27;155000.47;1749806;81;21356;-67
2020/12/13 09:03:03;;;;;;;38.20;16.40;;;;;;;14.77;63.24;155000.47;1740186;80;21427;-66
2020/12/13 09:05:36;;;;;;;44.70;16.73;;;;;;;14.80;63.04;155007.08;1783403;79;21705;-66
2020/12/13 09:08:09;;;;;;;38.88;16.85;;;;;;;14.72;62.34;154987.34;1795109;77;21324;-66
2020/12/13 09:10:44;;;;;;;36.13;16.23;;;;;;;14.77;62.30;154999.17;1791933;78;21189;-64
2020/12/13 09:13:16;;;;;;;34.05;15.20;;;;;;;14.75;62.69;154995.25;1791625;77;21265;-62
2020/12/13 09:15:49;;;;;;;33.92;15.83;;;;;;;14.79;62.67;155004.44;1771622;79;21404;-63
2020/12/13 09:18:22;;;;;;;34.63;15.63;;;;;;;14.77;62.79;154999.17;1769653;80;21344;-64
2020/12/13 09:20:58;;;;;;;40.23;16.73;;;;;;;14.79;62.11;155005.73;1762499;79;21323;-67
2020/12/13 09:23:31;;;;;;;33.48;16.10;;;;;;;14.84;62.33;155017.58;1772895;79;21283;-65
2020/12/13 09:26:03;;;;;;;36.30;15.65;;;;;;;14.77;61.62;154999.17;1763705;79;21312;-64
2020/12/13 09:28:36;;;;;;;37.58;15.68;;;;;;;14.83;62.19;155016.28;1806868;77;21394;-64
2020/12/13 09:31:10;;;;;;;34.67;16.70;;;;;;;14.87;62.29;155025.48;1743617;79;21790;-63
2020/12/13 09:33:43;;;;;;;32.93;14.90;;;;;;;14.93;62.44;155041.30;1765786;80;21514;-66
2020/12/13 09:36:17;;;;;;;34.03;14.87;;;;;;;14.91;61.65;155037.31;1769260;79;21256;-76
2020/12/13 09:39:09;;;;;;;33.80;16.02;;;;;;;14.90;61.80;155033.39;1750163;79;21205;-72
2020/12/13 09:41:42;;;;;;;35.68;16.30;;;;;;;14.88;61.57;155029.41;1747720;81;21381;-66
2020/12/13 09:44:15;;;;;;;32.63;15.93;;;;;;;14.90;61.36;155033.39;1758967;80;21746;-65
2020/12/13 09:46:48;;;;;;;41.15;15.83;;;;;;;14.88;61.09;155028.12;1727175;82;21454;-66
2020/12/13 09:49:21;;;;;;;36.42;17.02;;;;;;;14.85;60.82;155020.20;1750611;80;21202;-64
2020/12/13 09:52:02;;;;;;;36.53;16.50;;;;;;;14.87;60.91;155026.78;1750350;81;22229;-65
2020/12/13 09:54:36;;;;;;;36.68;15.98;;;;;;;14.90;60.70;155033.39;1733838;81;21267;-64
2020/12/13 09:57:08;;;;;;;37.20;17.00;;;;;;;14.94;60.94;155043.89;1692778;83;21463;-65
2020/12/13 09:59:41;;;;;;;37.83;16.70;;;;;;;15.06;60.59;155076.81;1719383;81;21518;-65
2020/12/13 10:02:13;;;;;;;35.55;15.95;;;;;;;15.08;60.27;155080.75;1730213;81;21221;-64
2020/12/13 10:04:46;;;;;;;39.70;16.95;;;;;;;15.45;59.63;155179.50;1751341;80;21423;-64
2020/12/13 10:07:32;;;;;;;36.70;16.07;;;;;;;15.04;60.45;155071.53;1772938;79;21347;-65
2020/12/13 10:10:00;;;;;;;41.68;17.77;;;;;;;15.03;60.30;155068.91;1763215;79;21249;-63
2020/12/13 10:12:34;;;;;;;36.28;16.48;;;;;;;14.94;60.01;155043.89;1745037;80;21293;-66
2020/12/13 10:15:06;;;;;;;31.37;15.65;;;;;;;14.88;60.01;155028.12;1747912;80;22018;-65
2020/12/13 10:17:41;;;;;;;42.90;16.73;;;;;;;14.92;59.95;155038.66;1764151;80;21210;-65
2020/12/13 10:20:13;;;;;;;32.03;15.72;;;;;;;14.96;60.03;155049.16;1752841;79;21664;-64
2020/12/13 10:22:46;;;;;;;31.97;15.93;;;;;;;15.04;59.90;155070.25;1762884;79;21225;-65
2020/12/13 10:25:19;;;;;;;34.83;15.50;;;;;;;15.04;59.93;155070.25;1756601;79;21253;-65
2020/12/13 10:27:51;;;;;;;38.05;17.10;;;;;;;15.10;59.75;155087.36;1717624;81;21891;-69
2020/12/13 10:30:24;;;;;;;32.38;15.63;;;;;;;15.25;59.68;155126.86;1777250;78;21426;-64
2020/12/13 10:32:57;;;;;;;33.63;14.47;;;;;;;15.09;59.72;155084.72;1775612;79;21339;-68
2020/12/13 10:35:30;;;;;;;38.85;18.35;;;;;;;15.02;59.75;155064.97;1754567;79;21454;-63
2020/12/13 10:38:02;;;;;;;36.28;17.48;;;;;;;15.00;59.72;155059.70;1761477;80;21733;-62
2020/12/13 10:40:36;;;;;;;32.25;14.75;;;;;;;15.00;59.74;155059.70;1768226;79;21238;-62
2020/12/13 10:43:08;;;;;;;31.37;14.50;;;;;;;14.91;60.17;155037.31;1771310;79;21189;-63
2020/12/13 10:45:41;;;;;;;32.85;15.78;;;;;;;15.00;60.18;155061.00;1698465;80;21319;-64
2020/12/13 10:48:15;;;;;;;30.68;13.88;;;;;;;15.04;60.13;155070.25;1648425;85;21226;-63
2020/12/13 10:50:47;;;;;;;37.13;14.55;;;;;;;15.08;60.00;155080.75;1679483;84;21742;-62
2020/12/13 10:53:19;;;;;;;29.25;12.73;;;;;;;15.04;59.88;155071.53;1670080;83;21280;-69
2020/12/13 10:55:52;;;;;;;26.80;13.05;;;;;;;15.16;59.51;155101.84;1665613;84;21326;-64
2020/12/13 10:58:24;;;;;;;26.33;12.35;;;;;;;15.02;62.00;155064.97;1668564;84;21322;-63
2020/12/13 11:00:57;;;;;;;23.92;12.75;;;;;;;15.09;60.38;155083.38;1660367;84;21286;-63
2020/12/13 11:03:29;;;;;;;25.35;12.40;;;;;;;15.13;59.97;155093.92;1676286;83;21759;-62
2020/12/13 11:06:02;;;;;;;22.48;12.23;;;;;;;15.14;59.70;155097.86;1643520;86;21272;-62
2020/12/13 11:08:34;;;;;;;25.40;11.83;;;;;;;15.14;59.64;155097.86;1688964;83;21256;-62
2020/12/13 11:11:06;;;;;;;21.90;11.57;;;;;;;15.21;59.76;155116.31;1696426;83;21224;-62
2020/12/13 11:13:39;;;;;;;23.15;12.00;;;;;;;15.22;59.54;155118.91;1707970;81;21326;-62
2020/12/13 11:16:12;;;;;;;23.45;12.65;;;;;;;15.21;59.55;155114.97;1698349;84;21244;-61
2020/12/13 11:18:44;;;;;;;23.45;11.48;;;;;;;15.26;59.46;155129.50;1690289;84;21343;-62
2020/12/13 11:21:17;;;;;;;21.23;10.85;;;;;;;15.28;59.46;155133.48;1682904;84;21242;-61
2020/12/13 11:23:49;;;;;;;28.95;11.10;;;;;;;15.35;59.69;155153.19;1687127;83;21188;-62
2020/12/13 11:26:22;;;;;;;18.87;9.70;;;;;;;15.26;59.50;155129.50;1700844;84;21394;-62
2020/12/13 11:28:54;;;;;;;22.85;10.45;;;;;;;15.23;60.17;155120.25;1691098;84;21840;-61
2020/12/13 11:31:26;;;;;;;23.85;11.00;;;;;;;15.11;60.89;155089.94;1695967;84;21292;-61
2020/12/13 11:33:58;;;;;;;21.42;10.08;;;;;;;15.10;60.41;155086.02;1689370;84;21179;-62
2020/12/13 11:36:31;;;;;;;18.57;10.13;;;;;;;15.08;60.32;155082.09;1694381;83;21793;-61
2020/12/13 11:39:03;;;;;;;19.80;9.85;;;;;;;15.10;61.11;155086.02;1679823;84;21340;-62
2020/12/13 11:41:35;;;;;;;20.75;10.78;;;;;;;15.18;60.64;155107.06;1683046;84;21689;-61
2020/12/13 11:44:07;;;;;;;20.23;10.90;;;;;;;15.15;60.57;155099.20;1681027;84;21398;-62